Mikonos, Greece

9:54 AM EEST on August 28, 2016 (GMT +0300)
Mikonos | | Change Station

Elev 404 ft 37.44 °N, 25.35 °E | Updated 34 minutes ago

Partly Cloudy
Partly Cloudy
72 °F
Feels Like 72 °F
N
21
Wind Variable Wind from NNW

Today
High -- | Low -- °F
--% Chance of Precip.
Yesterday
High -- | Low -- °F
Precip. -- in
Pressure 29.95 in
Visibility 6.2 miles
Clouds Few 800 ft
Dew Point 66 °F
Humidity 83%
Rainfall 0.00 in
Snow Depth Not available.
6:45 AM 7:52 PM
Waning Crescent, 18% visible
METAR LGMK 280620Z 34018KT 9999 FEW008 22/19 Q1014
Pressure 29.95 in
Visibility 6.2 miles
Clouds Few 800 ft
Dew Point 66 °F
Humidity 83%
Rainfall 0.00 in
Snow Depth Not available.
6:45 AM 7:52 PM
Waning Crescent, 18% visible
METAR LGMK 280620Z 34018KT 9999 FEW008 22/19 Q1014

10-Day Weather Forecast

×

Almanac

Astronomy

Aug. 28, 2016 Rise Set
Actual Time
Civil Twilight
Nautical Twilight
Astronomical Twilight
Moon
Length of Visible Light
Length of Day
Tomorrow will be .
, % of the Moon is Illuminated

Today's Extremes

Country Highs Country Lows

Community

WunderPhotos

Upload Photos

1,935,533 photos uploaded!

WunderBlog® & News

Nearby

Air Quality

  Air Quality AQ Index Pollutant
Not available.

Snow Depth

Station Depth Elevation

Earthquake Activity

City Distance Mag. Time & Date
Minimum magnitude displayed is 2.5.

Coastal Water Temperatures

Place Temperature

Stations

Nearby Weather Stations

Station Location Temp. Windchill Dew Point Humidity Wind Precip. Elev Updated Type